createdAt,value
2023-09-09T00:01:23.513Z,27.26
2023-09-09T00:03:57.301Z,27.24
2023-09-09T00:06:30.255Z,27.20
2023-09-09T00:09:05.639Z,27.13
2023-09-09T00:11:40.621Z,27.09
2023-09-09T00:14:13.428Z,27.06
2023-09-09T00:16:46.269Z,27.04
2023-09-09T00:19:23.000Z,27.08
2023-09-09T00:21:56.372Z,27.01
2023-09-09T00:24:29.275Z,27.00
2023-09-09T00:27:03.529Z,26.93
2023-09-09T00:29:36.506Z,26.86
2023-09-09T00:32:09.640Z,26.80
2023-09-09T00:34:42.600Z,26.81
2023-09-09T00:37:15.140Z,26.77
2023-09-09T00:39:47.955Z,26.77
2023-09-09T00:42:22.356Z,26.72
2023-09-09T00:44:55.217Z,26.72
2023-09-09T00:47:28.720Z,26.66
2023-09-09T00:50:01.948Z,26.69
2023-09-09T00:52:35.384Z,26.61
2023-09-09T00:55:09.852Z,26.50
2023-09-09T00:57:43.982Z,26.44
2023-09-09T01:00:18.248Z,26.39
2023-09-09T01:02:51.461Z,26.31
2023-09-09T01:05:24.743Z,26.26
2023-09-09T01:08:25.782Z,26.24
2023-09-09T01:10:59.423Z,26.22
2023-09-09T01:13:36.164Z,26.14
2023-09-09T01:16:09.931Z,26.17
2023-09-09T01:18:42.818Z,26.09
2023-09-09T01:21:17.863Z,26.09
2023-09-09T01:23:52.160Z,26.15
2023-09-09T01:26:25.013Z,26.13
2023-09-09T01:28:58.605Z,26.17
2023-09-09T01:31:31.327Z,26.13
2023-09-09T01:34:04.244Z,26.12
2023-09-09T01:36:37.165Z,26.10
2023-09-09T01:39:11.493Z,26.07
2023-09-09T01:41:44.409Z,26.01
2023-09-09T01:44:19.958Z,26.00
2023-09-09T01:46:52.769Z,26.04
2023-09-09T01:49:25.629Z,25.98
2023-09-09T01:51:58.946Z,25.91
2023-09-09T01:54:33.479Z,25.93
2023-09-09T01:57:07.024Z,25.92
2023-09-09T01:59:40.796Z,25.89
2023-09-09T02:02:17.120Z,25.90
2023-09-09T02:04:50.829Z,25.85
2023-09-09T02:07:23.778Z,25.80
2023-09-09T02:09:58.633Z,25.77
2023-09-09T02:12:32.593Z,25.78
2023-09-09T02:15:06.833Z,25.81
2023-09-09T02:17:39.635Z,25.82
2023-09-09T02:20:12.502Z,25.77
2023-09-09T02:22:45.293Z,25.76
2023-09-09T02:25:20.387Z,25.62
2023-09-09T02:27:53.344Z,25.67
2023-09-09T02:30:25.974Z,25.66
2023-09-09T02:32:59.180Z,25.59
2023-09-09T02:35:34.786Z,25.60
2023-09-09T02:38:07.641Z,25.51
2023-09-09T02:40:41.798Z,25.47
2023-09-09T02:43:14.576Z,25.53
2023-09-09T02:45:47.716Z,25.41
2023-09-09T02:48:20.586Z,25.43
2023-09-09T02:50:53.214Z,25.37
2023-09-09T02:53:26.188Z,25.34
2023-09-09T02:56:00.498Z,25.25
2023-09-09T02:58:36.267Z,25.38
2023-09-09T03:01:09.378Z,25.27
2023-09-09T03:03:43.106Z,25.22
2023-09-09T03:06:16.259Z,25.15
2023-09-09T03:08:49.111Z,25.08
2023-09-09T03:11:23.183Z,25.00
2023-09-09T03:13:56.062Z,25.05
2023-09-09T03:16:29.068Z,25.03
2023-09-09T03:19:10.997Z,24.97
2023-09-09T03:21:43.971Z,24.93
2023-09-09T03:24:16.861Z,24.93
2023-09-09T03:26:51.453Z,24.79
2023-09-09T03:29:25.223Z,24.77
2023-09-09T03:31:58.892Z,24.71
2023-09-09T03:34:31.563Z,24.73
2023-09-09T03:37:04.537Z,24.68
2023-09-09T03:39:37.943Z,24.67
2023-09-09T03:42:12.419Z,24.53
2023-09-09T03:44:45.681Z,24.49
2023-09-09T03:47:19.401Z,24.48
2023-09-09T03:49:54.536Z,24.50
2023-09-09T03:52:27.374Z,24.39
2023-09-09T03:55:00.103Z,24.41
2023-09-09T03:57:34.490Z,24.46
2023-09-09T04:00:13.114Z,24.45
2023-09-09T04:02:48.022Z,24.39
2023-09-09T04:05:21.377Z,24.32
2023-09-09T04:07:54.106Z,24.27
2023-09-09T04:10:27.426Z,24.34
2023-09-09T04:13:01.549Z,24.25
2023-09-09T04:15:34.352Z,24.27
2023-09-09T04:18:07.140Z,24.25
2023-09-09T04:20:40.345Z,24.27
2023-09-09T04:23:13.150Z,24.24
2023-09-09T04:25:46.386Z,24.22
2023-09-09T04:28:20.970Z,24.14
2023-09-09T04:30:54.359Z,24.17
2023-09-09T04:33:27.434Z,24.19
2023-09-09T04:36:00.546Z,24.21
2023-09-09T04:38:33.770Z,24.03
2023-09-09T04:41:06.680Z,23.94
2023-09-09T04:43:41.394Z,24.05
2023-09-09T04:46:14.697Z,24.00
2023-09-09T04:48:53.535Z,23.87
2023-09-09T04:51:26.447Z,23.90
2023-09-09T04:53:59.356Z,23.95
2023-09-09T04:56:32.792Z,23.80
2023-09-09T04:59:07.226Z,23.88
2023-09-09T05:01:40.225Z,23.86
2023-09-09T05:04:13.364Z,23.86
2023-09-09T05:06:46.405Z,23.89
2023-09-09T05:09:19.382Z,23.79
2023-09-09T05:11:52.480Z,23.78
2023-09-09T05:14:26.592Z,23.84
2023-09-09T05:16:59.608Z,23.81
2023-09-09T05:19:32.849Z,23.70
2023-09-09T05:22:05.906Z,23.73
2023-09-09T05:24:39.411Z,23.71
2023-09-09T05:27:12.233Z,23.68
2023-09-09T05:29:46.465Z,23.70
2023-09-09T05:32:19.841Z,23.65
2023-09-09T05:34:53.136Z,23.66
2023-09-09T05:37:27.607Z,23.67
2023-09-09T05:40:04.033Z,23.67
2023-09-09T05:42:38.445Z,23.63
2023-09-09T05:45:13.340Z,23.63
2023-09-09T05:47:47.556Z,23.68
2023-09-09T05:50:20.544Z,23.63
2023-09-09T05:52:55.504Z,23.61
2023-09-09T05:55:31.483Z,23.73
2023-09-09T05:58:05.278Z,23.67
2023-09-09T06:00:39.560Z,23.64
2023-09-09T06:03:12.407Z,23.70
2023-09-09T06:05:45.586Z,23.63
2023-09-09T06:08:19.095Z,23.65
2023-09-09T06:10:51.925Z,23.61
2023-09-09T06:13:25.006Z,23.68
2023-09-09T06:15:59.465Z,23.71
2023-09-09T06:18:33.821Z,23.69
2023-09-09T06:21:06.630Z,23.60
2023-09-09T06:23:39.548Z,23.68
2023-09-09T06:26:12.717Z,23.70
2023-09-09T06:28:45.970Z,23.70
2023-09-09T06:31:20.640Z,23.78
2023-09-09T06:33:53.563Z,23.80
2023-09-09T06:36:26.466Z,23.83
2023-09-09T06:38:59.980Z,23.88
2023-09-09T06:41:33.091Z,23.84
2023-09-09T06:44:06.838Z,23.81
2023-09-09T06:46:41.916Z,23.83
2023-09-09T06:49:14.881Z,23.92
2023-09-09T06:51:49.042Z,23.87
2023-09-09T06:54:21.858Z,23.94
2023-09-09T06:56:54.604Z,24.02
2023-09-09T06:59:27.812Z,24.07
2023-09-09T07:02:03.228Z,24.05
2023-09-09T07:04:37.101Z,24.04
2023-09-09T07:07:13.421Z,24.12
2023-09-09T07:09:48.016Z,24.17
2023-09-09T07:12:21.058Z,24.23
2023-09-09T07:14:53.945Z,24.41
2023-09-09T07:17:27.935Z,24.40
2023-09-09T07:20:00.818Z,24.48
2023-09-09T07:22:33.475Z,24.57
2023-09-09T07:25:08.385Z,24.59
2023-09-09T07:27:41.696Z,24.55
2023-09-09T07:30:14.714Z,24.73
2023-09-09T07:32:49.596Z,24.86
2023-09-09T07:35:22.756Z,25.04
2023-09-09T07:37:55.678Z,25.21
2023-09-09T07:40:28.574Z,25.34
2023-09-09T07:43:01.900Z,25.38
2023-09-09T07:45:34.658Z,25.52
2023-09-09T07:48:09.119Z,25.71
2023-09-09T07:50:42.083Z,25.80
2023-09-09T07:53:17.609Z,25.88
2023-09-09T07:55:50.780Z,25.86
2023-09-09T07:58:23.909Z,25.99
2023-09-09T08:01:00.472Z,26.15
2023-09-09T08:03:40.639Z,26.24
2023-09-09T08:06:15.319Z,26.32
2023-09-09T08:08:51.498Z,26.53
2023-09-09T08:11:24.342Z,26.68
2023-09-09T08:13:57.091Z,26.84
2023-09-09T08:16:33.719Z,26.92
2023-09-09T08:19:08.772Z,27.08
2023-09-09T08:21:41.600Z,27.31
2023-09-09T08:24:14.354Z,27.61
2023-09-09T08:26:48.202Z,27.79
2023-09-09T08:29:21.081Z,28.06
2023-09-09T08:31:54.292Z,28.08
2023-09-09T08:34:28.452Z,28.38
2023-09-09T08:37:01.783Z,28.68
2023-09-09T08:39:37.080Z,28.78
2023-09-09T08:42:18.609Z,28.98
2023-09-09T08:45:03.484Z,29.19
2023-09-09T08:47:38.448Z,29.42
2023-09-09T08:50:17.994Z,29.47
2023-09-09T08:52:54.127Z,29.52
2023-09-09T08:55:27.576Z,29.74
2023-09-09T08:58:01.043Z,29.77
2023-09-09T09:00:36.051Z,29.91
2023-09-09T09:03:11.262Z,30.27
2023-09-09T09:05:46.890Z,30.47
2023-09-09T09:08:19.920Z,30.82
2023-09-09T09:10:52.705Z,30.87
2023-09-09T09:13:25.956Z,31.21
2023-09-09T09:15:59.121Z,31.40
2023-09-09T09:18:32.608Z,31.58
2023-09-09T09:21:11.401Z,31.74
2023-09-09T09:23:45.534Z,31.99
2023-09-09T09:26:25.937Z,32.15
2023-09-09T09:28:59.100Z,32.31
2023-09-09T09:31:31.958Z,32.33
2023-09-09T09:34:04.941Z,32.47
2023-09-09T09:36:39.125Z,32.65
2023-09-09T09:39:12.027Z,32.76
2023-09-09T09:41:45.345Z,32.96
2023-09-09T09:44:20.676Z,33.06
2023-09-09T09:47:07.437Z,33.32
2023-09-09T09:49:42.027Z,33.34
2023-09-09T09:52:25.416Z,33.46
2023-09-09T09:54:58.388Z,33.59
2023-09-09T09:57:31.976Z,33.82
2023-09-09T10:00:09.009Z,34.01
2023-09-09T10:02:48.032Z,33.99
2023-09-09T10:05:23.532Z,34.08
2023-09-09T10:08:05.915Z,34.46
2023-09-09T10:10:44.211Z,34.56
2023-09-09T10:13:25.202Z,34.65
2023-09-09T10:15:59.744Z,34.79
2023-09-09T10:18:34.445Z,34.94
2023-09-09T10:21:10.695Z,35.16
2023-09-09T10:23:47.887Z,35.11
2023-09-09T10:26:22.028Z,35.17
2023-09-09T10:28:55.966Z,35.23
2023-09-09T10:31:30.145Z,35.48
2023-09-09T10:34:03.852Z,35.40
2023-09-09T10:36:50.822Z,35.65
2023-09-09T10:39:41.479Z,35.83
2023-09-09T10:42:14.570Z,35.88
2023-09-09T10:44:50.248Z,36.07
2023-09-09T10:47:23.616Z,36.08
2023-09-09T10:50:06.590Z,36.26
2023-09-09T10:52:39.713Z,36.42
2023-09-09T10:55:14.624Z,36.52
2023-09-09T10:57:58.651Z,36.50
2023-09-09T11:00:39.150Z,36.67
2023-09-09T11:03:13.264Z,36.81
2023-09-09T11:06:03.793Z,36.89
2023-09-09T11:08:45.457Z,37.03
2023-09-09T11:11:25.827Z,37.10
2023-09-09T11:14:04.532Z,37.20
2023-09-09T11:16:39.162Z,37.24
2023-09-09T11:19:13.498Z,37.40
2023-09-09T11:21:47.679Z,37.51
2023-09-09T11:24:21.523Z,37.54
2023-09-09T11:26:57.608Z,37.71
2023-09-09T11:29:37.375Z,37.81
2023-09-09T11:32:25.358Z,37.88
2023-09-09T11:34:59.385Z,37.98
2023-09-09T11:37:32.676Z,38.03
2023-09-09T11:40:06.633Z,38.16
2023-09-09T11:42:53.420Z,38.08
2023-09-09T11:45:26.272Z,38.23
2023-09-09T11:47:59.406Z,38.26
2023-09-09T11:50:40.648Z,38.47
2023-09-09T11:53:14.267Z,38.25
2023-09-09T11:55:47.437Z,38.44
2023-09-09T11:58:21.597Z,38.55
2023-09-09T12:01:01.795Z,38.81
2023-09-09T12:03:35.209Z,38.30
2023-09-09T12:06:10.266Z,37.50
2023-09-09T12:08:43.934Z,37.98
2023-09-09T12:11:18.836Z,38.27
2023-09-09T12:13:53.301Z,38.32
2023-09-09T12:16:26.217Z,37.87
2023-09-09T12:18:59.350Z,38.65
2023-09-09T12:21:33.142Z,37.97
2023-09-09T12:24:07.172Z,38.52
2023-09-09T12:26:40.638Z,38.75
2023-09-09T12:29:14.941Z,38.59
2023-09-09T12:31:53.971Z,37.96
2023-09-09T12:34:28.729Z,38.85
2023-09-09T12:37:02.038Z,39.28
2023-09-09T12:39:34.857Z,38.43
2023-09-09T12:42:08.978Z,38.30
2023-09-09T12:44:54.200Z,38.82
2023-09-09T12:47:27.658Z,39.22
2023-09-09T12:50:00.568Z,38.39
2023-09-09T12:52:33.785Z,39.51
2023-09-09T12:55:06.740Z,38.81
2023-09-09T12:57:39.473Z,39.20
2023-09-09T13:00:14.970Z,39.39
2023-09-09T13:02:48.050Z,38.94
2023-09-09T13:05:21.510Z,39.32
2023-09-09T13:07:54.651Z,39.29
2023-09-09T13:10:27.568Z,39.69
2023-09-09T13:13:00.298Z,38.98
2023-09-09T13:15:34.774Z,38.90
2023-09-09T13:18:06.710Z,39.38
2023-09-09T13:20:39.490Z,39.59
2023-09-09T13:23:12.254Z,39.04
2023-09-09T13:25:45.144Z,39.58
2023-09-09T13:28:18.198Z,39.61
2023-09-09T13:30:52.215Z,39.90
2023-09-09T13:33:25.094Z,40.24
2023-09-09T13:35:57.822Z,39.45
2023-09-09T13:38:30.616Z,39.26
2023-09-09T13:41:04.424Z,39.62
2023-09-09T13:43:37.679Z,39.88
2023-09-09T13:46:12.384Z,39.71
2023-09-09T13:48:45.142Z,39.14
2023-09-09T13:51:17.887Z,39.19
2023-09-09T13:53:51.012Z,39.39
2023-09-09T13:56:23.926Z,39.10
2023-09-09T13:58:57.911Z,39.71
2023-09-09T14:01:32.378Z,39.90
2023-09-09T14:04:05.794Z,39.30
2023-09-09T14:06:38.620Z,39.35
2023-09-09T14:09:11.568Z,39.16
2023-09-09T14:11:44.446Z,39.41
2023-09-09T14:14:18.461Z,39.48
2023-09-09T14:16:56.251Z,39.17
2023-09-09T14:19:29.723Z,39.14
2023-09-09T14:22:02.779Z,38.65
2023-09-09T14:24:35.899Z,38.98
2023-09-09T14:27:10.004Z,39.06
2023-09-09T14:29:46.508Z,39.20
2023-09-09T14:32:20.654Z,39.45
2023-09-09T14:34:53.414Z,39.77
2023-09-09T14:37:26.439Z,39.73
2023-09-09T14:39:59.240Z,39.69
2023-09-09T14:42:32.076Z,39.18
2023-09-09T14:45:05.855Z,39.34
2023-09-09T14:47:39.995Z,39.53
2023-09-09T14:50:13.106Z,39.71
2023-09-09T14:52:45.958Z,39.29
2023-09-09T14:55:20.208Z,39.43
2023-09-09T14:57:52.945Z,39.61
2023-09-09T15:00:25.627Z,39.57
2023-09-09T15:02:59.712Z,39.59
2023-09-09T15:05:33.054Z,39.45
2023-09-09T15:08:06.628Z,39.18
2023-09-09T15:10:39.411Z,38.82
2023-09-09T15:13:12.067Z,38.82
2023-09-09T15:15:45.329Z,38.47
2023-09-09T15:18:20.137Z,38.54
2023-09-09T15:20:53.137Z,38.38
2023-09-09T15:23:25.967Z,38.39
2023-09-09T15:25:59.498Z,38.23
2023-09-09T15:28:33.133Z,38.09
2023-09-09T15:31:06.703Z,37.80
2023-09-09T15:33:41.131Z,37.69
2023-09-09T15:36:14.391Z,37.64
2023-09-09T15:38:47.670Z,37.60
2023-09-09T15:41:22.352Z,37.51
2023-09-09T15:43:55.247Z,37.35
2023-09-09T15:46:28.183Z,37.40
2023-09-09T15:49:02.348Z,37.25
2023-09-09T15:51:35.327Z,37.11
2023-09-09T15:54:08.344Z,37.08
2023-09-09T15:56:41.118Z,36.97
2023-09-09T15:59:14.091Z,36.99
2023-09-09T16:01:46.883Z,36.87
2023-09-09T16:04:21.156Z,36.71
2023-09-09T16:06:53.863Z,36.58
2023-09-09T16:09:26.786Z,36.34
2023-09-09T16:11:59.860Z,36.35
2023-09-09T16:14:32.600Z,36.19
2023-09-09T16:17:05.777Z,36.15
2023-09-09T16:19:40.081Z,36.10
2023-09-09T16:22:12.836Z,36.04
2023-09-09T16:24:45.564Z,35.92
2023-09-09T16:27:18.343Z,35.84
2023-09-09T16:29:51.039Z,35.78
2023-09-09T16:32:24.155Z,35.66
2023-09-09T16:34:59.882Z,35.62
2023-09-09T16:37:35.026Z,35.54
2023-09-09T16:40:09.618Z,35.37
2023-09-09T16:42:43.277Z,35.37
2023-09-09T16:45:18.920Z,35.37
2023-09-09T16:47:52.338Z,35.22
2023-09-09T16:50:26.489Z,35.16
2023-09-09T16:52:59.653Z,35.14
2023-09-09T16:55:32.872Z,35.08
2023-09-09T16:58:05.664Z,34.97
2023-09-09T17:00:38.429Z,34.91
2023-09-09T17:03:11.441Z,34.79
2023-09-09T17:05:47.239Z,34.70
2023-09-09T17:08:21.307Z,34.57
2023-09-09T17:10:53.953Z,34.50
2023-09-09T17:13:26.927Z,34.36
2023-09-09T17:16:00.251Z,34.32
2023-09-09T17:18:33.128Z,34.20
2023-09-09T17:21:11.319Z,34.20
2023-09-09T17:23:44.463Z,34.13
2023-09-09T17:26:17.658Z,34.08
2023-09-09T17:28:50.573Z,34.12
2023-09-09T17:31:23.792Z,34.12
2023-09-09T17:33:56.935Z,33.95
2023-09-09T17:36:31.990Z,33.86
2023-09-09T17:39:08.174Z,33.81
2023-09-09T17:41:41.080Z,33.72
2023-09-09T17:44:14.122Z,33.64
2023-09-09T17:46:47.026Z,33.60
2023-09-09T17:49:23.222Z,33.46
2023-09-09T17:51:57.565Z,33.46
2023-09-09T17:54:30.336Z,33.63
2023-09-09T17:57:03.347Z,33.66
2023-09-09T17:59:35.983Z,33.68
2023-09-09T18:02:09.697Z,33.71
2023-09-09T18:04:42.832Z,33.70
2023-09-09T18:07:21.097Z,33.66
2023-09-09T18:09:56.622Z,33.47
2023-09-09T18:12:29.522Z,33.45
2023-09-09T18:15:02.426Z,33.37
2023-09-09T18:17:35.428Z,33.17
2023-09-09T18:20:09.228Z,33.35
2023-09-09T18:22:43.412Z,33.26
2023-09-09T18:25:16.560Z,33.24
2023-09-09T18:27:49.637Z,33.20
2023-09-09T18:30:24.594Z,33.19
2023-09-09T18:32:57.549Z,33.10
2023-09-09T18:35:30.283Z,33.05
2023-09-09T18:38:06.043Z,33.04
2023-09-09T18:40:39.164Z,33.01
2023-09-09T18:43:12.428Z,32.95
2023-09-09T18:45:46.252Z,32.87
2023-09-09T18:48:19.704Z,32.85
2023-09-09T18:50:52.520Z,32.77
2023-09-09T18:53:27.708Z,32.72
2023-09-09T18:56:02.203Z,32.55
2023-09-09T18:58:35.105Z,32.58
2023-09-09T19:01:09.872Z,32.42
2023-09-09T19:03:42.853Z,32.43
2023-09-09T19:06:15.742Z,32.36
2023-09-09T19:08:50.235Z,32.27
2023-09-09T19:11:23.558Z,32.27
2023-09-09T19:13:56.782Z,32.21
2023-09-09T19:16:30.030Z,32.20
2023-09-09T19:19:02.903Z,32.08
2023-09-09T19:21:35.924Z,32.08
2023-09-09T19:24:10.715Z,32.03
2023-09-09T19:26:43.622Z,31.96
2023-09-09T19:29:16.641Z,31.90
2023-09-09T19:31:50.371Z,31.88
2023-09-09T19:34:24.265Z,31.84
2023-09-09T19:36:57.099Z,31.85
2023-09-09T19:39:31.221Z,31.79
2023-09-09T19:42:04.852Z,31.73
2023-09-09T19:44:38.033Z,31.66
2023-09-09T19:47:10.777Z,31.58
2023-09-09T19:49:43.428Z,31.55
2023-09-09T19:52:16.991Z,31.48
2023-09-09T19:54:51.151Z,31.43
2023-09-09T19:57:23.862Z,31.43
2023-09-09T19:59:56.431Z,31.39
2023-09-09T20:02:29.566Z,31.36
2023-09-09T20:05:02.626Z,31.28
2023-09-09T20:07:35.950Z,31.18
2023-09-09T20:10:12.868Z,31.14
2023-09-09T20:12:46.271Z,31.07
2023-09-09T20:15:19.477Z,31.08
2023-09-09T20:17:52.590Z,31.05
2023-09-09T20:20:25.707Z,31.08
2023-09-09T20:22:58.674Z,31.03
2023-09-09T20:25:33.146Z,31.00
2023-09-09T20:28:06.935Z,30.91
2023-09-09T20:30:40.676Z,30.86
2023-09-09T20:33:15.533Z,30.67
2023-09-09T20:35:50.987Z,30.74
2023-09-09T20:38:24.143Z,30.74
2023-09-09T20:40:58.568Z,30.72
2023-09-09T20:43:31.555Z,30.67
2023-09-09T20:46:10.110Z,30.67
2023-09-09T20:48:43.592Z,30.61
2023-09-09T20:51:17.542Z,30.60
2023-09-09T20:53:50.600Z,30.52
2023-09-09T20:56:25.086Z,30.52
2023-09-09T20:58:58.100Z,30.45
2023-09-09T21:01:35.390Z,30.40
2023-09-09T21:04:08.377Z,30.39
2023-09-09T21:06:41.602Z,30.35
2023-09-09T21:09:14.441Z,30.32
2023-09-09T21:11:49.209Z,30.25
2023-09-09T21:14:23.481Z,30.18
2023-09-09T21:16:57.236Z,30.08
2023-09-09T21:19:30.388Z,30.11
2023-09-09T21:22:03.622Z,30.09
2023-09-09T21:24:36.692Z,30.00
2023-09-09T21:27:11.414Z,29.91
2023-09-09T21:29:44.426Z,29.95
2023-09-09T21:32:17.870Z,30.00
2023-09-09T21:34:52.215Z,29.95
2023-09-09T21:37:25.351Z,29.80
2023-09-09T21:39:58.275Z,29.83
2023-09-09T21:42:32.808Z,29.77
2023-09-09T21:45:06.783Z,29.66
2023-09-09T21:47:40.017Z,29.70
2023-09-09T21:50:14.100Z,29.69
2023-09-09T21:52:47.767Z,29.63
2023-09-09T21:55:20.679Z,29.58
2023-09-09T21:57:54.767Z,29.55
2023-09-09T22:00:27.643Z,29.52
2023-09-09T22:03:00.718Z,29.53
2023-09-09T22:05:33.706Z,29.50
2023-09-09T22:08:07.395Z,29.47
2023-09-09T22:10:40.332Z,29.44
2023-09-09T22:13:14.607Z,29.35
2023-09-09T22:15:48.180Z,29.37
2023-09-09T22:18:21.297Z,29.28
2023-09-09T22:20:54.637Z,29.21
2023-09-09T22:23:27.597Z,29.17
2023-09-09T22:26:00.662Z,29.10
2023-09-09T22:28:36.106Z,29.12
2023-09-09T22:31:09.134Z,29.17
2023-09-09T22:33:42.179Z,29.07
2023-09-09T22:36:14.902Z,29.04
2023-09-09T22:38:49.038Z,28.99
2023-09-09T22:41:22.129Z,28.92
2023-09-09T22:43:56.569Z,28.91
2023-09-09T22:46:29.757Z,28.89
2023-09-09T22:49:04.481Z,28.87
2023-09-09T22:51:37.803Z,28.90
2023-09-09T22:54:10.491Z,28.85
2023-09-09T22:56:43.430Z,28.81
2023-09-09T22:59:18.139Z,28.81
2023-09-09T23:01:51.038Z,28.76
2023-09-09T23:04:24.277Z,28.75
2023-09-09T23:06:57.207Z,28.77
2023-09-09T23:09:29.883Z,28.74
2023-09-09T23:12:03.042Z,28.63
2023-09-09T23:14:37.724Z,28.62
2023-09-09T23:17:11.034Z,28.56
2023-09-09T23:19:43.872Z,28.55
2023-09-09T23:22:16.755Z,28.53
2023-09-09T23:24:49.682Z,28.45
2023-09-09T23:27:23.561Z,28.40
2023-09-09T23:29:58.635Z,28.43
2023-09-09T23:32:31.964Z,28.41
2023-09-09T23:35:05.443Z,28.34
2023-09-09T23:37:38.803Z,28.29
2023-09-09T23:40:12.788Z,28.31
2023-09-09T23:42:45.968Z,28.21
2023-09-09T23:45:20.815Z,28.22
2023-09-09T23:47:54.973Z,28.21
2023-09-09T23:50:27.929Z,28.29
2023-09-09T23:53:02.996Z,28.29
2023-09-09T23:55:36.081Z,28.24
2023-09-09T23:58:09.029Z,28.19
